sensor_id;sensor_type;location;lat;lon;timestamp;pressure;altitude;pressure_sealevel;temperature;humidity
52745;BME280;38637;49.984;20.426;2023-05-11T00:01:40;99558.38;;;7.55;70.28
52745;BME280;38637;49.984;20.426;2023-05-11T00:04:06;99567.59;;;7.54;70.32
52745;BME280;38637;49.984;20.426;2023-05-11T00:06:32;99563.47;;;7.51;71.02
52745;BME280;38637;49.984;20.426;2023-05-11T00:08:57;99568.31;;;7.49;70.78
52745;BME280;38637;49.984;20.426;2023-05-11T00:11:22;99560.28;;;7.54;70.27
52745;BME280;38637;49.984;20.426;2023-05-11T00:13:47;99554.84;;;7.54;70.57
52745;BME280;38637;49.984;20.426;2023-05-11T00:16:13;99567.59;;;7.54;70.20
52745;BME280;38637;49.984;20.426;2023-05-11T00:18:38;99561.91;;;7.55;70.03
52745;BME280;38637;49.984;20.426;2023-05-11T00:21:03;99560.28;;;7.54;69.75
52745;BME280;38637;49.984;20.426;2023-05-11T00:23:29;99557.78;;;7.53;69.67
52745;BME280;38637;49.984;20.426;2023-05-11T00:25:54;99569.13;;;7.50;69.74
52745;BME280;38637;49.984;20.426;2023-05-11T00:28:19;99559.59;;;7.47;70.28
52745;BME280;38637;49.984;20.426;2023-05-11T00:30:45;99558.38;;;7.43;70.96
52745;BME280;38637;49.984;20.426;2023-05-11T00:33:10;99567.59;;;7.42;70.85
52745;BME280;38637;49.984;20.426;2023-05-11T00:35:35;99559.69;;;7.41;70.42
52745;BME280;38637;49.984;20.426;2023-05-11T00:38:01;99556.38;;;7.39;71.07
52745;BME280;38637;49.984;20.426;2023-05-11T00:40:26;99561.09;;;7.43;70.75
52745;BME280;38637;49.984;20.426;2023-05-11T00:42:51;99557.56;;;7.43;70.32
52745;BME280;38637;49.984;20.426;2023-05-11T00:45:16;99550.81;;;7.33;71.66
52745;BME280;38637;49.984;20.426;2023-05-11T00:47:42;99555.56;;;7.26;72.06
52745;BME280;38637;49.984;20.426;2023-05-11T00:50:07;99557.22;;;7.27;71.74
52745;BME280;38637;49.984;20.426;2023-05-11T00:52:33;99543.63;;;7.27;71.80
52745;BME280;38637;49.984;20.426;2023-05-11T00:54:58;99552.25;;;7.24;71.74
52745;BME280;38637;49.984;20.426;2023-05-11T00:57:23;99557.19;;;7.16;72.50
52745;BME280;38637;49.984;20.426;2023-05-11T00:59:49;99557.16;;;7.04;72.97
52745;BME280;38637;49.984;20.426;2023-05-11T01:02:14;99549.38;;;6.96;73.55
52745;BME280;38637;49.984;20.426;2023-05-11T01:04:40;99550.91;;;6.91;73.69
52745;BME280;38637;49.984;20.426;2023-05-11T01:07:08;99554.22;;;6.94;73.62
52745;BME280;38637;49.984;20.426;2023-05-11T01:09:54;99549.84;;;6.93;73.88
52745;BME280;38637;49.984;20.426;2023-05-11T01:12:35;99555.25;;;6.81;74.25
52745;BME280;38637;49.984;20.426;2023-05-11T01:15:11;99547.69;;;6.71;74.36
52745;BME280;38637;49.984;20.426;2023-05-11T01:20:16;99546.63;;;6.72;74.38
52745;BME280;38637;49.984;20.426;2023-05-11T01:22:54;99558.06;;;6.74;74.21
52745;BME280;38637;49.984;20.426;2023-05-11T01:25:30;99560.19;;;6.72;73.79
52745;BME280;38637;49.984;20.426;2023-05-11T01:30:45;99556.16;;;6.63;74.85
52745;BME280;38637;49.984;20.426;2023-05-11T01:33:12;99552.00;;;6.60;74.81
52745;BME280;38637;49.984;20.426;2023-05-11T01:35:42;99567.31;;;6.55;75.00
52745;BME280;38637;49.984;20.426;2023-05-11T01:38:10;99553.75;;;6.55;75.26
52745;BME280;38637;49.984;20.426;2023-05-11T01:40:36;99565.66;;;6.54;74.74
52745;BME280;38637;49.984;20.426;2023-05-11T01:43:04;99559.41;;;6.53;75.08
52745;BME280;38637;49.984;20.426;2023-05-11T01:45:32;99559.56;;;6.58;75.31
52745;BME280;38637;49.984;20.426;2023-05-11T01:47:58;99556.91;;;6.52;75.59
52745;BME280;38637;49.984;20.426;2023-05-11T01:50:26;99561.88;;;6.43;75.91
52745;BME280;38637;49.984;20.426;2023-05-11T01:52:52;99555.84;;;6.41;75.92
52745;BME280;38637;49.984;20.426;2023-05-11T01:55:18;99566.91;;;6.39;75.25
52745;BME280;38637;49.984;20.426;2023-05-11T01:57:45;99564.69;;;6.48;74.37
52745;BME280;38637;49.984;20.426;2023-05-11T02:00:10;99565.31;;;6.50;74.15
52745;BME280;38637;49.984;20.426;2023-05-11T02:02:36;99568.66;;;6.34;74.80
52745;BME280;38637;49.984;20.426;2023-05-11T02:05:02;99565.72;;;6.35;74.36
52745;BME280;38637;49.984;20.426;2023-05-11T02:07:29;99566.69;;;6.41;74.11
52745;BME280;38637;49.984;20.426;2023-05-11T02:09:56;99571.88;;;6.42;73.79
52745;BME280;38637;49.984;20.426;2023-05-11T02:12:22;99565.88;;;6.40;74.24
52745;BME280;38637;49.984;20.426;2023-05-11T02:14:49;99566.31;;;6.37;73.48
52745;BME280;38637;49.984;20.426;2023-05-11T02:17:15;99576.09;;;6.38;74.10
52745;BME280;38637;49.984;20.426;2023-05-11T02:19:41;99573.94;;;6.29;74.16
52745;BME280;38637;49.984;20.426;2023-05-11T02:22:08;99567.09;;;6.26;74.63
52745;BME280;38637;49.984;20.426;2023-05-11T02:24:35;99575.69;;;6.23;74.64
52745;BME280;38637;49.984;20.426;2023-05-11T02:27:00;99572.81;;;6.18;75.19
52745;BME280;38637;49.984;20.426;2023-05-11T02:29:26;99572.84;;;5.99;76.01
52745;BME280;38637;49.984;20.426;2023-05-11T02:31:55;99585.63;;;5.92;76.73
52745;BME280;38637;49.984;20.426;2023-05-11T02:34:25;99586.81;;;5.78;77.03
52745;BME280;38637;49.984;20.426;2023-05-11T02:36:52;99576.34;;;5.63;77.66
52745;BME280;38637;49.984;20.426;2023-05-11T02:39:18;99576.63;;;5.55;77.92
52745;BME280;38637;49.984;20.426;2023-05-11T02:41:45;99579.25;;;5.43;78.03
52745;BME280;38637;49.984;20.426;2023-05-11T02:44:14;99575.34;;;5.39;79.15
52745;BME280;38637;49.984;20.426;2023-05-11T02:46:40;99573.06;;;5.36;79.45
52745;BME280;38637;49.984;20.426;2023-05-11T02:49:06;99573.34;;;5.28;79.99
52745;BME280;38637;49.984;20.426;2023-05-11T02:51:36;99571.31;;;5.23;80.76
52745;BME280;38637;49.984;20.426;2023-05-11T02:54:04;99578.03;;;5.39;79.73
52745;BME280;38637;49.984;20.426;2023-05-11T02:56:31;99578.81;;;5.46;78.69
52745;BME280;38637;49.984;20.426;2023-05-11T02:58:56;99582.72;;;5.50;78.79
52745;BME280;38637;49.984;20.426;2023-05-11T03:01:21;99584.94;;;5.60;77.68
52745;BME280;38637;49.984;20.426;2023-05-11T03:03:47;99582.59;;;5.64;77.90
52745;BME280;38637;49.984;20.426;2023-05-11T03:06:12;99580.09;;;5.62;78.60
52745;BME280;38637;49.984;20.426;2023-05-11T03:08:37;99579.88;;;5.64;78.44
52745;BME280;38637;49.984;20.426;2023-05-11T03:11:03;99571.66;;;5.52;79.91
52745;BME280;38637;49.984;20.426;2023-05-11T03:13:29;99590.25;;;5.48;79.98
52745;BME280;38637;49.984;20.426;2023-05-11T03:15:55;99583.78;;;5.49;79.35
52745;BME280;38637;49.984;20.426;2023-05-11T03:18:21;99587.75;;;5.47;79.32
52745;BME280;38637;49.984;20.426;2023-05-11T03:20:46;99582.78;;;5.44;80.14
52745;BME280;38637;49.984;20.426;2023-05-11T03:23:12;99584.44;;;5.45;80.34
52745;BME280;38637;49.984;20.426;2023-05-11T03:25:40;99585.88;;;5.47;79.97
52745;BME280;38637;49.984;20.426;2023-05-11T03:28:05;99592.72;;;5.50;79.63
52745;BME280;38637;49.984;20.426;2023-05-11T03:30:31;99594.63;;;5.68;78.91
52745;BME280;38637;49.984;20.426;2023-05-11T03:32:57;99587.78;;;5.65;79.90
52745;BME280;38637;49.984;20.426;2023-05-11T03:35:23;99593.44;;;5.64;80.67
52745;BME280;38637;49.984;20.426;2023-05-11T03:37:49;99592.59;;;5.63;81.01
52745;BME280;38637;49.984;20.426;2023-05-11T03:40:16;99592.38;;;5.65;81.50
52745;BME280;38637;49.984;20.426;2023-05-11T03:42:43;99591.25;;;5.72;81.32
52745;BME280;38637;49.984;20.426;2023-05-11T03:45:09;99593.44;;;5.82;80.69
52745;BME280;38637;49.984;20.426;2023-05-11T03:47:36;99599.81;;;5.94;80.34
52745;BME280;38637;49.984;20.426;2023-05-11T03:50:03;99594.69;;;6.05;80.13
52745;BME280;38637;49.984;20.426;2023-05-11T03:52:29;99597.22;;;6.18;79.57
52745;BME280;38637;49.984;20.426;2023-05-11T03:54:54;99591.03;;;6.29;79.37
52745;BME280;38637;49.984;20.426;2023-05-11T03:57:20;99596.53;;;6.41;78.70
52745;BME280;38637;49.984;20.426;2023-05-11T03:59:48;99598.69;;;6.51;77.64
52745;BME280;38637;49.984;20.426;2023-05-11T04:02:13;99601.66;;;6.61;77.31
52745;BME280;38637;49.984;20.426;2023-05-11T04:04:39;99599.13;;;6.78;76.82
52745;BME280;38637;49.984;20.426;2023-05-11T04:07:04;99603.31;;;6.92;75.82
52745;BME280;38637;49.984;20.426;2023-05-11T04:09:29;99594.59;;;7.02;75.54
52745;BME280;38637;49.984;20.426;2023-05-11T04:11:55;99598.28;;;7.19;74.86
52745;BME280;38637;49.984;20.426;2023-05-11T04:14:20;99599.84;;;7.39;74.23
52745;BME280;38637;49.984;20.426;2023-05-11T04:16:45;99590.88;;;7.62;73.42
52745;BME280;38637;49.984;20.426;2023-05-11T04:19:10;99596.06;;;7.87;73.30
52745;BME280;38637;49.984;20.426;2023-05-11T04:21:36;99598.66;;;8.05;72.22
52745;BME280;38637;49.984;20.426;2023-05-11T04:24:01;99595.03;;;8.28;71.44
52745;BME280;38637;49.984;20.426;2023-05-11T04:26:26;99603.72;;;8.54;70.07
52745;BME280;38637;49.984;20.426;2023-05-11T04:28:52;99601.41;;;8.74;69.61
52745;BME280;38637;49.984;20.426;2023-05-11T04:31:17;99594.47;;;8.83;68.80
52745;BME280;38637;49.984;20.426;2023-05-11T04:33:42;99595.56;;;8.99;67.67
52745;BME280;38637;49.984;20.426;2023-05-11T04:36:07;99594.44;;;9.12;68.15
52745;BME280;38637;49.984;20.426;2023-05-11T04:38:32;99592.72;;;9.23;66.87
52745;BME280;38637;49.984;20.426;2023-05-11T04:41:07;99590.25;;;9.38;67.32
52745;BME280;38637;49.984;20.426;2023-05-11T04:43:32;99590.56;;;9.58;66.63
52745;BME280;38637;49.984;20.426;2023-05-11T04:45:57;99588.56;;;9.71;66.10
52745;BME280;38637;49.984;20.426;2023-05-11T04:48:26;99590.19;;;9.72;65.27
52745;BME280;38637;49.984;20.426;2023-05-11T04:50:52;99599.47;;;9.71;65.13
52745;BME280;38637;49.984;20.426;2023-05-11T04:53:17;99602.97;;;9.49;66.25
52745;BME280;38637;49.984;20.426;2023-05-11T04:55:42;99606.56;;;9.55;66.09
52745;BME280;38637;49.984;20.426;2023-05-11T04:58:08;99596.56;;;9.60;65.95
52745;BME280;38637;49.984;20.426;2023-05-11T05:00:33;99605.00;;;9.59;65.77
52745;BME280;38637;49.984;20.426;2023-05-11T05:03:00;99607.75;;;9.59;65.74
52745;BME280;38637;49.984;20.426;2023-05-11T05:05:25;99602.09;;;9.65;65.80
52745;BME280;38637;49.984;20.426;2023-05-11T05:07:50;99607.78;;;9.81;65.80
52745;BME280;38637;49.984;20.426;2023-05-11T05:10:16;99610.66;;;9.91;65.36
52745;BME280;38637;49.984;20.426;2023-05-11T05:12:41;99616.78;;;9.98;65.70
52745;BME280;38637;49.984;20.426;2023-05-11T05:15:06;99619.63;;;10.08;64.73
52745;BME280;38637;49.984;20.426;2023-05-11T05:17:32;99609.16;;;10.22;64.55
52745;BME280;38637;49.984;20.426;2023-05-11T05:19:57;99613.28;;;10.25;64.31
52745;BME280;38637;49.984;20.426;2023-05-11T05:22:23;99613.19;;;10.37;64.72
52745;BME280;38637;49.984;20.426;2023-05-11T05:24:49;99617.31;;;10.39;64.69
52745;BME280;38637;49.984;20.426;2023-05-11T05:27:14;99615.91;;;10.58;64.22
52745;BME280;38637;49.984;20.426;2023-05-11T05:29:39;99610.06;;;10.72;63.54
52745;BME280;38637;49.984;20.426;2023-05-11T05:32:04;99612.38;;;10.85;63.76
52745;BME280;38637;49.984;20.426;2023-05-11T05:34:30;99613.34;;;11.01;63.93
52745;BME280;38637;49.984;20.426;2023-05-11T05:36:55;99616.53;;;11.20;63.54
52745;BME280;38637;49.984;20.426;2023-05-11T05:39:20;99615.31;;;11.33;63.77
52745;BME280;38637;49.984;20.426;2023-05-11T05:41:45;99615.53;;;11.31;62.75
52745;BME280;38637;49.984;20.426;2023-05-11T05:44:10;99612.81;;;11.31;63.29
52745;BME280;38637;49.984;20.426;2023-05-11T05:46:36;99611.81;;;11.42;63.28
52745;BME280;38637;49.984;20.426;2023-05-11T05:49:01;99620.13;;;11.58;63.19
52745;BME280;38637;49.984;20.426;2023-05-11T05:51:26;99614.53;;;11.80;63.17
52745;BME280;38637;49.984;20.426;2023-05-11T05:53:51;99612.75;;;11.95;63.05
52745;BME280;38637;49.984;20.426;2023-05-11T05:56:17;99622.59;;;11.91;62.90
52745;BME280;38637;49.984;20.426;2023-05-11T05:58:42;99610.00;;;11.95;62.72
52745;BME280;38637;49.984;20.426;2023-05-11T06:01:07;99607.38;;;12.11;62.29
52745;BME280;38637;49.984;20.426;2023-05-11T06:03:32;99606.88;;;12.19;62.05
52745;BME280;38637;49.984;20.426;2023-05-11T06:05:57;99610.50;;;12.35;61.96
52745;BME280;38637;49.984;20.426;2023-05-11T06:08:23;99605.88;;;12.46;61.73
52745;BME280;38637;49.984;20.426;2023-05-11T06:10:48;99615.25;;;12.60;61.29
52745;BME280;38637;49.984;20.426;2023-05-11T06:13:13;99613.84;;;12.57;61.29
52745;BME280;38637;49.984;20.426;2023-05-11T06:15:38;99613.88;;;12.62;61.56
52745;BME280;38637;49.984;20.426;2023-05-11T06:18:03;99614.19;;;12.76;61.38
52745;BME280;38637;49.984;20.426;2023-05-11T06:20:30;99605.72;;;12.83;61.06
52745;BME280;38637;49.984;20.426;2023-05-11T06:22:55;99611.22;;;12.93;61.10
52745;BME280;38637;49.984;20.426;2023-05-11T06:25:20;99607.66;;;12.98;61.13
52745;BME280;38637;49.984;20.426;2023-05-11T06:27:45;99614.50;;;12.90;60.54
52745;BME280;38637;49.984;20.426;2023-05-11T06:30:11;99613.41;;;12.96;60.53
52745;BME280;38637;49.984;20.426;2023-05-11T06:32:36;99605.50;;;13.10;60.95
52745;BME280;38637;49.984;20.426;2023-05-11T06:35:01;99607.94;;;13.22;61.75
52745;BME280;38637;49.984;20.426;2023-05-11T06:37:29;99610.19;;;13.30;60.31
52745;BME280;38637;49.984;20.426;2023-05-11T06:39:55;99618.44;;;13.45;60.22
52745;BME280;38637;49.984;20.426;2023-05-11T06:42:20;99603.31;;;13.58;58.72
52745;BME280;38637;49.984;20.426;2023-05-11T06:44:47;99609.91;;;13.72;57.46
52745;BME280;38637;49.984;20.426;2023-05-11T06:47:12;99608.50;;;13.85;57.05
52745;BME280;38637;49.984;20.426;2023-05-11T06:49:38;99606.84;;;13.99;56.91
52745;BME280;38637;49.984;20.426;2023-05-11T06:52:03;99598.81;;;14.13;56.81
52745;BME280;38637;49.984;20.426;2023-05-11T06:54:28;99603.19;;;14.30;56.75
52745;BME280;38637;49.984;20.426;2023-05-11T06:56:54;99600.63;;;14.43;56.24
52745;BME280;38637;49.984;20.426;2023-05-11T06:59:19;99603.66;;;14.52;55.53
52745;BME280;38637;49.984;20.426;2023-05-11T07:01:44;99606.91;;;14.59;55.40
52745;BME280;38637;49.984;20.426;2023-05-11T07:04:10;99599.44;;;14.70;55.24
52745;BME280;38637;49.984;20.426;2023-05-11T07:06:35;99595.50;;;14.81;53.74
52745;BME280;38637;49.984;20.426;2023-05-11T07:09:01;99599.03;;;14.92;54.04
52745;BME280;38637;49.984;20.426;2023-05-11T07:11:27;99602.91;;;14.91;53.28
52745;BME280;38637;49.984;20.426;2023-05-11T07:13:53;99588.25;;;15.01;54.03
52745;BME280;38637;49.984;20.426;2023-05-11T07:16:18;99587.72;;;14.99;53.10
52745;BME280;38637;49.984;20.426;2023-05-11T07:18:43;99590.66;;;15.12;52.52
52745;BME280;38637;49.984;20.426;2023-05-11T07:21:08;99590.78;;;15.31;51.26
52745;BME280;38637;49.984;20.426;2023-05-11T07:23:34;99597.56;;;15.44;51.51
52745;BME280;38637;49.984;20.426;2023-05-11T07:25:59;99596.09;;;15.52;52.00
52745;BME280;38637;49.984;20.426;2023-05-11T07:28:25;99568.41;;;15.43;51.33
52745;BME280;38637;49.984;20.426;2023-05-11T07:30:50;99584.44;;;15.70;51.94
52745;BME280;38637;49.984;20.426;2023-05-11T07:33:15;99593.22;;;15.67;51.46
52745;BME280;38637;49.984;20.426;2023-05-11T07:35:41;99588.28;;;15.64;51.52
52745;BME280;38637;49.984;20.426;2023-05-11T07:38:06;99591.25;;;15.73;51.81
52745;BME280;38637;49.984;20.426;2023-05-11T07:40:33;99587.69;;;15.72;50.48
52745;BME280;38637;49.984;20.426;2023-05-11T07:42:58;99589.34;;;15.73;51.92
52745;BME280;38637;49.984;20.426;2023-05-11T07:45:24;99586.75;;;15.82;51.26
52745;BME280;38637;49.984;20.426;2023-05-11T07:47:49;99595.03;;;15.82;51.83
52745;BME280;38637;49.984;20.426;2023-05-11T07:50:14;99592.00;;;15.83;50.50
52745;BME280;38637;49.984;20.426;2023-05-11T07:52:40;99588.84;;;15.95;50.99
52745;BME280;38637;49.984;20.426;2023-05-11T07:55:05;99593.78;;;15.98;50.91
52745;BME280;38637;49.984;20.426;2023-05-11T07:57:30;99583.44;;;16.09;50.84
52745;BME280;38637;49.984;20.426;2023-05-11T07:59:56;99593.00;;;16.17;50.34
52745;BME280;38637;49.984;20.426;2023-05-11T08:02:21;99587.28;;;16.13;48.68
52745;BME280;38637;49.984;20.426;2023-05-11T08:04:46;99591.34;;;16.16;47.12
52745;BME280;38637;49.984;20.426;2023-05-11T08:07:11;99582.09;;;16.06;47.12
52745;BME280;38637;49.984;20.426;2023-05-11T08:09:37;99588.91;;;16.14;48.50
52745;BME280;38637;49.984;20.426;2023-05-11T08:12:02;99587.09;;;16.04;47.63
52745;BME280;38637;49.984;20.426;2023-05-11T08:14:27;99578.75;;;16.09;48.25
52745;BME280;38637;49.984;20.426;2023-05-11T08:16:53;99580.63;;;16.14;46.09
52745;BME280;38637;49.984;20.426;2023-05-11T08:19:18;99572.16;;;16.11;47.94
52745;BME280;38637;49.984;20.426;2023-05-11T08:21:43;99573.38;;;16.23;44.43
52745;BME280;38637;49.984;20.426;2023-05-11T08:24:10;99576.00;;;16.34;44.08
52745;BME280;38637;49.984;20.426;2023-05-11T08:26:35;99573.84;;;16.49;43.78
52745;BME280;38637;49.984;20.426;2023-05-11T08:29:01;99564.09;;;16.38;43.33
52745;BME280;38637;49.984;20.426;2023-05-11T08:31:28;99573.84;;;16.49;42.92
52745;BME280;38637;49.984;20.426;2023-05-11T08:33:53;99575.63;;;16.40;41.75
52745;BME280;38637;49.984;20.426;2023-05-11T08:36:18;99578.09;;;16.42;45.48
52745;BME280;38637;49.984;20.426;2023-05-11T08:38:43;99567.75;;;16.52;45.85
52745;BME280;38637;49.984;20.426;2023-05-11T08:41:12;99566.81;;;16.62;45.73
52745;BME280;38637;49.984;20.426;2023-05-11T08:43:38;99565.38;;;16.65;45.96
52745;BME280;38637;49.984;20.426;2023-05-11T08:46:04;99567.78;;;16.71;45.06
52745;BME280;38637;49.984;20.426;2023-05-11T08:48:31;99557.50;;;16.77;45.48
52745;BME280;38637;49.984;20.426;2023-05-11T08:50:57;99562.78;;;16.92;44.39
52745;BME280;38637;49.984;20.426;2023-05-11T08:53:22;99558.78;;;17.04;45.31
52745;BME280;38637;49.984;20.426;2023-05-11T08:55:48;99558.31;;;17.15;45.15
52745;BME280;38637;49.984;20.426;2023-05-11T08:58:14;99559.88;;;17.21;44.73
52745;BME280;38637;49.984;20.426;2023-05-11T09:00:43;99552.72;;;17.20;44.38
52745;BME280;38637;49.984;20.426;2023-05-11T09:03:09;99555.09;;;17.27;43.18
52745;BME280;38637;49.984;20.426;2023-05-11T09:05:35;99561.03;;;17.34;41.70
52745;BME280;38637;49.984;20.426;2023-05-11T09:08:00;99561.38;;;17.46;40.55
52745;BME280;38637;49.984;20.426;2023-05-11T09:10:28;99554.78;;;17.75;39.69
52745;BME280;38637;49.984;20.426;2023-05-11T09:12:53;99562.13;;;18.12;41.03
52745;BME280;38637;49.984;20.426;2023-05-11T09:15:18;99551.47;;;18.33;40.23
52745;BME280;38637;49.984;20.426;2023-05-11T09:17:43;99559.75;;;18.47;41.21
52745;BME280;38637;49.984;20.426;2023-05-11T09:20:09;99566.78;;;18.53;41.00
52745;BME280;38637;49.984;20.426;2023-05-11T09:22:39;99556.13;;;18.60;41.33
52745;BME280;38637;49.984;20.426;2023-05-11T09:25:05;99552.81;;;18.72;41.74
52745;BME280;38637;49.984;20.426;2023-05-11T09:27:30;99554.19;;;18.75;39.32
52745;BME280;38637;49.984;20.426;2023-05-11T09:29:56;99549.53;;;18.84;39.23
52745;BME280;38637;49.984;20.426;2023-05-11T09:32:21;99546.34;;;18.91;38.37
52745;BME280;38637;49.984;20.426;2023-05-11T09:34:46;99552.75;;;19.00;37.05
52745;BME280;38637;49.984;20.426;2023-05-11T09:37:16;99553.72;;;18.95;34.40
52745;BME280;38637;49.984;20.426;2023-05-11T09:39:41;99552.03;;;19.08;35.79
52745;BME280;38637;49.984;20.426;2023-05-11T09:42:13;99548.19;;;19.18;35.43
52745;BME280;38637;49.984;20.426;2023-05-11T09:44:39;99547.63;;;19.29;36.25
52745;BME280;38637;49.984;20.426;2023-05-11T09:47:18;99548.38;;;19.21;35.09
52745;BME280;38637;49.984;20.426;2023-05-11T09:49:44;99551.59;;;19.15;35.12
52745;BME280;38637;49.984;20.426;2023-05-11T09:52:10;99533.78;;;19.07;35.82
52745;BME280;38637;49.984;20.426;2023-05-11T09:54:42;99529.19;;;19.02;35.89
52745;BME280;38637;49.984;20.426;2023-05-11T09:57:20;99538.81;;;19.05;37.38
52745;BME280;38637;49.984;20.426;2023-05-11T09:59:46;99539.19;;;19.12;37.08
52745;BME280;38637;49.984;20.426;2023-05-11T10:02:18;99533.09;;;19.24;37.08
52745;BME280;38637;49.984;20.426;2023-05-11T10:04:45;99537.47;;;19.25;35.53
52745;BME280;38637;49.984;20.426;2023-05-11T10:07:10;99539.69;;;19.14;35.04
52745;BME280;38637;49.984;20.426;2023-05-11T10:09:35;99531.13;;;19.02;35.01
52745;BME280;38637;49.984;20.426;2023-05-11T10:12:02;99526.16;;;18.90;35.88
52745;BME280;38637;49.984;20.426;2023-05-11T10:14:29;99523.84;;;18.83;36.98
52745;BME280;38637;49.984;20.426;2023-05-11T10:16:56;99533.91;;;18.79;35.79
52745;BME280;38637;49.984;20.426;2023-05-11T10:19:21;99526.31;;;18.71;35.43
52745;BME280;38637;49.984;20.426;2023-05-11T10:21:47;99523.97;;;18.65;35.82
52745;BME280;38637;49.984;20.426;2023-05-11T10:24:13;99519.16;;;18.56;35.09
52745;BME280;38637;49.984;20.426;2023-05-11T10:26:38;99509.09;;;18.60;35.91
52745;BME280;38637;49.984;20.426;2023-05-11T10:29:04;99510.34;;;18.54;35.90
52745;BME280;38637;49.984;20.426;2023-05-11T10:31:29;99518.88;;;18.58;36.38
52745;BME280;38637;49.984;20.426;2023-05-11T10:33:55;99513.72;;;18.65;37.78
52745;BME280;38637;49.984;20.426;2023-05-11T10:36:22;99512.09;;;18.64;36.66
52745;BME280;38637;49.984;20.426;2023-05-11T10:38:47;99511.25;;;18.64;35.97
52745;BME280;38637;49.984;20.426;2023-05-11T10:46:35;99515.53;;;18.70;35.04
52745;BME280;38637;49.984;20.426;2023-05-11T10:54:08;99487.56;;;18.71;34.85
52745;BME280;38637;49.984;20.426;2023-05-11T11:01:54;99488.50;;;18.67;35.09
52745;BME280;38637;49.984;20.426;2023-05-11T11:04:23;99507.22;;;18.70;34.60
52745;BME280;38637;49.984;20.426;2023-05-11T11:06:51;99498.56;;;18.76;34.97
52745;BME280;38637;49.984;20.426;2023-05-11T11:09:28;99493.09;;;18.71;34.49
52745;BME280;38637;49.984;20.426;2023-05-11T11:12:13;99499.06;;;18.65;33.85
52745;BME280;38637;49.984;20.426;2023-05-11T11:14:57;99485.44;;;18.68;33.15
52745;BME280;38637;49.984;20.426;2023-05-11T11:17:24;99478.19;;;18.58;33.40
52745;BME280;38637;49.984;20.426;2023-05-11T11:19:51;99475.09;;;18.60;33.76
52745;BME280;38637;49.984;20.426;2023-05-11T11:25:03;99481.13;;;18.76;33.01
52745;BME280;38637;49.984;20.426;2023-05-11T11:32:42;99480.09;;;18.72;32.98
52745;BME280;38637;49.984;20.426;2023-05-11T11:35:43;99473.22;;;18.69;32.07
52745;BME280;38637;49.984;20.426;2023-05-11T11:37:59;99465.72;;;18.47;31.77
52745;BME280;38637;49.984;20.426;2023-05-11T11:40:45;99480.72;;;18.69;33.16
52745;BME280;38637;49.984;20.426;2023-05-11T11:43:12;99477.69;;;18.93;33.05
52745;BME280;38637;49.984;20.426;2023-05-11T11:45:38;99487.03;;;19.05;32.57
52745;BME280;38637;49.984;20.426;2023-05-11T11:48:07;99475.28;;;19.22;32.52
52745;BME280;38637;49.984;20.426;2023-05-11T11:50:33;99471.25;;;19.28;32.20
52745;BME280;38637;49.984;20.426;2023-05-11T11:52:58;99480.41;;;19.38;32.51
52745;BME280;38637;49.984;20.426;2023-05-11T11:55:43;99478.97;;;19.49;32.31
52745;BME280;38637;49.984;20.426;2023-05-11T11:58:09;99481.97;;;19.61;32.20
52745;BME280;38637;49.984;20.426;2023-05-11T12:00:35;99477.53;;;19.51;32.35
52745;BME280;38637;49.984;20.426;2023-05-11T12:03:00;99483.44;;;19.27;32.56
52745;BME280;38637;49.984;20.426;2023-05-11T12:05:26;99472.44;;;19.14;32.34
52745;BME280;38637;49.984;20.426;2023-05-11T12:07:53;99474.41;;;19.13;32.58
52745;BME280;38637;49.984;20.426;2023-05-11T12:10:19;99473.50;;;19.26;32.80
52745;BME280;38637;49.984;20.426;2023-05-11T12:12:46;99471.72;;;19.31;33.22
52745;BME280;38637;49.984;20.426;2023-05-11T12:15:23;99478.31;;;19.43;33.47
52745;BME280;38637;49.984;20.426;2023-05-11T12:17:49;99467.44;;;19.56;32.44
52745;BME280;38637;49.984;20.426;2023-05-11T12:20:15;99478.38;;;19.61;32.29
52745;BME280;38637;49.984;20.426;2023-05-11T12:22:41;99467.56;;;19.42;32.67
52745;BME280;38637;49.984;20.426;2023-05-11T12:25:07;99471.31;;;19.15;31.07
52745;BME280;38637;49.984;20.426;2023-05-11T12:27:33;99471.63;;;19.13;32.17
52745;BME280;38637;49.984;20.426;2023-05-11T12:29:58;99459.94;;;19.16;32.29
52745;BME280;38637;49.984;20.426;2023-05-11T12:32:24;99457.41;;;19.37;32.01
52745;BME280;38637;49.984;20.426;2023-05-11T12:35:00;99460.09;;;19.51;32.51
52745;BME280;38637;49.984;20.426;2023-05-11T12:37:26;99458.28;;;19.78;34.03
52745;BME280;38637;49.984;20.426;2023-05-11T12:39:55;99454.44;;;19.96;33.35
52745;BME280;38637;49.984;20.426;2023-05-11T12:42:20;99444.03;;;20.10;32.71
52745;BME280;38637;49.984;20.426;2023-05-11T12:44:45;99446.81;;;20.19;32.42
52745;BME280;38637;49.984;20.426;2023-05-11T12:47:10;99449.78;;;20.40;31.53
52745;BME280;38637;49.984;20.426;2023-05-11T12:49:36;99455.03;;;20.59;29.88
52745;BME280;38637;49.984;20.426;2023-05-11T12:52:04;99445.25;;;20.79;30.23
52745;BME280;38637;49.984;20.426;2023-05-11T12:54:37;99449.13;;;20.95;31.53
52745;BME280;38637;49.984;20.426;2023-05-11T12:57:03;99437.66;;;21.14;29.94
52745;BME280;38637;49.984;20.426;2023-05-11T12:59:33;99445.31;;;21.43;29.40
52745;BME280;38637;49.984;20.426;2023-05-11T13:02:09;99435.19;;;21.77;29.00
52745;BME280;38637;49.984;20.426;2023-05-11T13:04:35;99443.03;;;22.05;29.58
52745;BME280;38637;49.984;20.426;2023-05-11T13:07:00;99437.06;;;22.23;28.71
52745;BME280;38637;49.984;20.426;2023-05-11T13:09:26;99443.19;;;22.38;29.89
52745;BME280;38637;49.984;20.426;2023-05-11T13:12:12;99433.81;;;22.42;28.61
52745;BME280;38637;49.984;20.426;2023-05-11T13:14:37;99442.50;;;22.41;28.72
52745;BME280;38637;49.984;20.426;2023-05-11T13:17:03;99431.22;;;22.37;29.19
52745;BME280;38637;49.984;20.426;2023-05-11T13:19:28;99426.50;;;22.38;29.28
52745;BME280;38637;49.984;20.426;2023-05-11T13:21:55;99424.72;;;22.33;29.68